Nearby METAR Reports

 

KBAX - Bad Axe, Michigan, USA
Distance from station: ESE 22mi, 35km
Updated: Mon, 14-Oct-2019 9:00pm EDT
Partly cloudy
Partly cloudy
 Wind from calm
Wind: Calm
Temperature: 37°F , 3°C
Dew Point: 32°F , 0°C
Humidity: 81%
Barometer: 30.06 inHg , 1017.9 hPa
Clouds: Partly cloudy
Visibility: 10 miles , 16 km
Cloud details: Partly cloudy 4500 ft
2019/10/15 01:00 KBAX 150100Z AUTO 00000KT 10SM SCT045 03/00 A3006 RMK AO2 T00290002
KFNT - Flint, Michigan, USA
Distance from station: SSW 68mi, 109km
Updated: Mon, 14-Oct-2019 8:53pm EDT
Few Clouds
Few Clouds
 Wind from WSW
Wind: WSW 5 mph , 7 km/h
Temperature: 43°F , 6°C
Wind Chill: 40°F , 4°C
Dew Point: 34°F , 1°C
Humidity: 71%
Barometer: 30.09 inHg , 1019 hPa
Clouds: Few Clouds
Visibility: 10 miles , 16 km
Cloud details: Few Clouds 4300 ft
2019/10/15 00:53 KFNT 150053Z 25004KT 10SM FEW043 06/01 A3009 RMK AO2 SLP195 T00610006 $
KMBS - Saginaw, Michigan, USA
Distance from station: SW 44mi, 70km
Updated: Mon, 14-Oct-2019 8:53pm EDT
Clear
Clear
 Wind from SW
Wind: SW 6 mph , 9 km/h
Temperature: 43°F , 6°C
Wind Chill: 39°F , 4°C
Dew Point: 32°F , 0°C
Humidity: 66%
Barometer: 30.08 inHg , 1018.6 hPa
Clouds: Clear
Visibility: 10 miles , 16 km
2019/10/15 00:53 KMBS 150053Z 23005KT 10SM CLR 06/00 A3008 RMK AO2 SLP191 T00560000
 
KDTW - Detroit/Wayne, Michigan, USA
Distance from station: SSE 117mi, 188km
Updated: Mon, 14-Oct-2019 8:53pm EDT
Few Clouds
Few Clouds
 Wind from calm
Wind: Calm
Temperature: 45°F , 7°C
Dew Point: 36°F , 2°C
Humidity: 71%
Barometer: 30.09 inHg , 1019 hPa
Clouds: Few Clouds
Visibility: 10 miles , 16 km
Cloud details: Few Clouds 5000 ft
2019/10/15 00:53 KDTW 150053Z 00000KT 10SM FEW050 07/02 A3009 RMK AO2 SLP194 T00720022
KP58 - Port Hope, Michigan, USA
Distance from station: ENE 30mi, 48km
Updated: Mon, 14-Oct-2019 8:51pm EDT

 Wind from SW
Wind: SW 5 mph , 7 km/h
Temperature: 43°F , 6°C
Wind Chill: 40°F , 4°C
Dew Point: 34°F , 1°C
Humidity: 71%
Barometer: 30.04 inHg , 1017.3 hPa
2019/10/15 00:51 KP58 150051Z AUTO 22004KT 06/01 A3004 RMK AO1 SLP180 T00560006
KCFS - Caro/Tuscola, Michigan, USA
Distance from station: S 31mi, 50km
Updated: Mon, 14-Oct-2019 8:59pm EDT
Clear
Clear
 Wind from calm
Wind: Calm
Temperature: 36°F , 2°C
Dew Point: 34°F , 1°C
Humidity: 93%
Barometer: 30.07 inHg , 1018.3 hPa
Clouds: Clear
Visibility: 10 miles , 16 km
2019/10/15 00:59 KCFS 150059Z AUTO 00000KT 10SM CLR 02/01 A3007 RMK AO2 T00240008
 
KPHN - Port Huron, Michigan, USA
Distance from station: SSE 81mi, 131km
Updated: Mon, 14-Oct-2019 8:55pm EDT
Mostly cloudy
Mostly cloudy
 Wind from calm
Wind: Calm
Temperature: 41°F , 5°C
Dew Point: 36°F , 2°C
Humidity: 81%
Barometer: 30.09 inHg , 1019 hPa
Clouds: Mostly cloudy
Visibility: 10 miles , 16 km
Cloud details: Mostly cloudy 5500 ft
2019/10/15 00:55 KPHN 150055Z AUTO 00000KT 10SM BKN055 05/02 A3009 RMK AO2
KPTK - Pontiac, Michigan, USA
Distance from station: S 86mi, 138km
Updated: Mon, 14-Oct-2019 8:53pm EDT
Mostly cloudy
Mostly cloudy
 Wind from calm
Wind: Calm
Temperature: 46°F , 8°C
Dew Point: 36°F , 2°C
Humidity: 66%
Barometer: 30.08 inHg , 1018.6 hPa
Clouds: Mostly cloudy
Visibility: 10 miles , 16 km
Cloud details: Mostly cloudy 4500 ft
2019/10/15 00:53 KPTK 150053Z 00000KT 10SM BKN045 08/02 A3008 RMK AO2 SLP190 T00780017
KMTC - Selfridge Angb, Michigan, USA
Distance from station: SSE 94mi, 151km
Updated: Mon, 14-Oct-2019 8:56pm EDT
Overcast
Overcast
 Wind from calm
Wind: Calm
Temperature: 45°F , 7°C
Dew Point: 39°F , 4°C
Humidity: 81%
Barometer: 30.08 inHg , 1018.6 hPa
Clouds: Overcast
Visibility: 10 miles , 16 km
Cloud details: Overcast 5000 ft
2019/10/15 00:56 KMTC 150056Z AUTO 00000KT 10SM OVC050 07/04 A3008 RMK AO2 SLP194 T00710037 $